sensor_id;sensor_type;location;lat;lon;timestamp;temperature;humidity
3268;DHT22;1646;52.450;13.326;2024-03-22T00:02:03;9.60;99.90
3268;DHT22;1646;52.450;13.326;2024-03-22T00:07:00;9.60;99.90
3268;DHT22;1646;52.450;13.326;2024-03-22T00:11:58;9.60;99.90
3268;DHT22;1646;52.450;13.326;2024-03-22T00:16:56;9.60;99.90
3268;DHT22;1646;52.450;13.326;2024-03-22T00:21:53;9.60;99.90
3268;DHT22;1646;52.450;13.326;2024-03-22T00:26:50;9.60;99.90
3268;DHT22;1646;52.450;13.326;2024-03-22T00:31:47;9.60;99.90
3268;DHT22;1646;52.450;13.326;2024-03-22T00:36:46;9.60;99.90
3268;DHT22;1646;52.450;13.326;2024-03-22T00:41:43;9.60;99.90
3268;DHT22;1646;52.450;13.326;2024-03-22T00:46:40;9.60;99.90
3268;DHT22;1646;52.450;13.326;2024-03-22T00:51:37;9.50;99.90
3268;DHT22;1646;52.450;13.326;2024-03-22T00:56:36;9.50;99.90
3268;DHT22;1646;52.450;13.326;2024-03-22T01:01:33;9.50;99.90
3268;DHT22;1646;52.450;13.326;2024-03-22T01:06:30;9.40;99.90
3268;DHT22;1646;52.450;13.326;2024-03-22T01:11:27;9.40;99.90
3268;DHT22;1646;52.450;13.326;2024-03-22T01:16:25;9.30;99.90
3268;DHT22;1646;52.450;13.326;2024-03-22T01:21:22;9.20;99.90
3268;DHT22;1646;52.450;13.326;2024-03-22T01:26:21;9.10;99.90
3268;DHT22;1646;52.450;13.326;2024-03-22T01:31:18;9.10;99.90
3268;DHT22;1646;52.450;13.326;2024-03-22T01:36:16;9.10;99.90
3268;DHT22;1646;52.450;13.326;2024-03-22T01:41:13;9.20;99.90
3268;DHT22;1646;52.450;13.326;2024-03-22T01:46:10;9.20;99.90
3268;DHT22;1646;52.450;13.326;2024-03-22T01:51:08;9.30;99.90
3268;DHT22;1646;52.450;13.326;2024-03-22T01:56:08;9.30;99.90
3268;DHT22;1646;52.450;13.326;2024-03-22T02:01:05;9.30;99.90
3268;DHT22;1646;52.450;13.326;2024-03-22T02:06:02;9.10;99.90
3268;DHT22;1646;52.450;13.326;2024-03-22T02:11:00;9.10;99.90
3268;DHT22;1646;52.450;13.326;2024-03-22T02:15:58;9.20;99.90
3268;DHT22;1646;52.450;13.326;2024-03-22T02:20:56;9.30;99.90
3268;DHT22;1646;52.450;13.326;2024-03-22T02:25:55;9.30;99.90
3268;DHT22;1646;52.450;13.326;2024-03-22T02:30:52;9.30;99.90
3268;DHT22;1646;52.450;13.326;2024-03-22T02:35:50;9.30;99.90
3268;DHT22;1646;52.450;13.326;2024-03-22T02:40:49;9.10;99.90
3268;DHT22;1646;52.450;13.326;2024-03-22T02:45:47;9.10;99.90
3268;DHT22;1646;52.450;13.326;2024-03-22T02:50:44;9.20;99.90
3268;DHT22;1646;52.450;13.326;2024-03-22T02:55:42;9.10;99.90
3268;DHT22;1646;52.450;13.326;2024-03-22T03:00:39;9.00;99.90
3268;DHT22;1646;52.450;13.326;2024-03-22T03:05:37;9.00;99.90
3268;DHT22;1646;52.450;13.326;2024-03-22T03:10:37;9.00;99.90
3268;DHT22;1646;52.450;13.326;2024-03-22T03:15:34;9.00;99.90
3268;DHT22;1646;52.450;13.326;2024-03-22T03:20:31;9.00;99.90
3268;DHT22;1646;52.450;13.326;2024-03-22T03:25:29;9.00;99.90
3268;DHT22;1646;52.450;13.326;2024-03-22T03:30:26;9.30;99.90
3268;DHT22;1646;52.450;13.326;2024-03-22T03:35:23;9.00;99.90
3268;DHT22;1646;52.450;13.326;2024-03-22T03:40:21;9.20;99.90
3268;DHT22;1646;52.450;13.326;2024-03-22T03:45:21;9.00;99.90
3268;DHT22;1646;52.450;13.326;2024-03-22T03:50:18;9.10;99.90
3268;DHT22;1646;52.450;13.326;2024-03-22T03:55:15;9.10;99.90
3268;DHT22;1646;52.450;13.326;2024-03-22T04:00:13;9.10;99.90
3268;DHT22;1646;52.450;13.326;2024-03-22T04:05:12;9.10;99.90
3268;DHT22;1646;52.450;13.326;2024-03-22T04:10:09;9.20;99.90
3268;DHT22;1646;52.450;13.326;2024-03-22T04:15:07;9.10;99.90
3268;DHT22;1646;52.450;13.326;2024-03-22T04:20:06;9.00;99.90
3268;DHT22;1646;52.450;13.326;2024-03-22T04:25:06;9.00;99.90
3268;DHT22;1646;52.450;13.326;2024-03-22T04:30:05;9.00;99.90
3268;DHT22;1646;52.450;13.326;2024-03-22T04:35:02;9.10;99.90
3268;DHT22;1646;52.450;13.326;2024-03-22T04:40:00;9.10;99.90
3268;DHT22;1646;52.450;13.326;2024-03-22T04:44:58;9.10;99.90
3268;DHT22;1646;52.450;13.326;2024-03-22T04:49:56;9.20;99.90
3268;DHT22;1646;52.450;13.326;2024-03-22T04:54:53;9.20;99.90
3268;DHT22;1646;52.450;13.326;2024-03-22T04:59:50;9.10;99.90
3268;DHT22;1646;52.450;13.326;2024-03-22T05:04:49;9.00;99.90
3268;DHT22;1646;52.450;13.326;2024-03-22T05:09:47;9.00;99.90
3268;DHT22;1646;52.450;13.326;2024-03-22T05:14:44;9.10;99.90
3268;DHT22;1646;52.450;13.326;2024-03-22T05:19:41;9.10;99.90
3268;DHT22;1646;52.450;13.326;2024-03-22T05:24:40;9.20;99.90
3268;DHT22;1646;52.450;13.326;2024-03-22T05:29:37;9.20;99.90
3268;DHT22;1646;52.450;13.326;2024-03-22T05:34:34;9.50;99.90
3268;DHT22;1646;52.450;13.326;2024-03-22T05:39:32;9.30;99.90
3268;DHT22;1646;52.450;13.326;2024-03-22T05:44:31;9.30;99.90
3268;DHT22;1646;52.450;13.326;2024-03-22T05:49:28;9.30;99.90
3268;DHT22;1646;52.450;13.326;2024-03-22T05:54:25;9.30;99.90
3268;DHT22;1646;52.450;13.326;2024-03-22T05:59:22;9.30;99.90
3268;DHT22;1646;52.450;13.326;2024-03-22T06:04:21;9.30;99.90
3268;DHT22;1646;52.450;13.326;2024-03-22T06:09:19;9.40;99.90
3268;DHT22;1646;52.450;13.326;2024-03-22T06:14:19;9.40;99.90
3268;DHT22;1646;52.450;13.326;2024-03-22T06:19:16;9.40;99.90
3268;DHT22;1646;52.450;13.326;2024-03-22T06:24:15;9.40;99.90
3268;DHT22;1646;52.450;13.326;2024-03-22T06:29:12;9.50;99.90
3268;DHT22;1646;52.450;13.326;2024-03-22T06:34:09;9.40;99.90
3268;DHT22;1646;52.450;13.326;2024-03-22T06:39:06;9.50;99.90
3268;DHT22;1646;52.450;13.326;2024-03-22T06:44:07;9.60;99.90
3268;DHT22;1646;52.450;13.326;2024-03-22T06:49:04;9.60;99.90
3268;DHT22;1646;52.450;13.326;2024-03-22T06:54:02;9.70;99.90
3268;DHT22;1646;52.450;13.326;2024-03-22T06:58:59;9.80;99.90
3268;DHT22;1646;52.450;13.326;2024-03-22T07:03:58;9.90;99.90
3268;DHT22;1646;52.450;13.326;2024-03-22T07:08:55;10.00;99.90
3268;DHT22;1646;52.450;13.326;2024-03-22T07:13:52;10.00;99.90
3268;DHT22;1646;52.450;13.326;2024-03-22T07:18:49;10.10;99.90
3268;DHT22;1646;52.450;13.326;2024-03-22T07:23:47;10.20;99.90
3268;DHT22;1646;52.450;13.326;2024-03-22T07:28:45;10.30;99.90
3268;DHT22;1646;52.450;13.326;2024-03-22T07:33:42;10.40;99.90
3268;DHT22;1646;52.450;13.326;2024-03-22T07:38:39;10.40;99.90
3268;DHT22;1646;52.450;13.326;2024-03-22T07:43:38;10.30;99.90
3268;DHT22;1646;52.450;13.326;2024-03-22T07:48:35;10.30;99.90
3268;DHT22;1646;52.450;13.326;2024-03-22T07:53:32;10.30;99.90
3268;DHT22;1646;52.450;13.326;2024-03-22T07:58:29;10.40;99.90
3268;DHT22;1646;52.450;13.326;2024-03-22T08:03:28;10.40;99.90
3268;DHT22;1646;52.450;13.326;2024-03-22T08:08:25;10.40;99.90
3268;DHT22;1646;52.450;13.326;2024-03-22T08:13:22;10.50;99.90
3268;DHT22;1646;52.450;13.326;2024-03-22T08:18:19;10.60;99.90
3268;DHT22;1646;52.450;13.326;2024-03-22T08:23:18;10.70;99.90
3268;DHT22;1646;52.450;13.326;2024-03-22T08:28:16;10.90;99.90
3268;DHT22;1646;52.450;13.326;2024-03-22T08:33:13;11.00;99.90
3268;DHT22;1646;52.450;13.326;2024-03-22T08:38:10;11.10;99.90
3268;DHT22;1646;52.450;13.326;2024-03-22T08:43:11;11.10;99.90
3268;DHT22;1646;52.450;13.326;2024-03-22T08:48:09;11.20;99.90
3268;DHT22;1646;52.450;13.326;2024-03-22T08:53:06;11.30;99.90
3268;DHT22;1646;52.450;13.326;2024-03-22T08:58:03;11.40;99.90
3268;DHT22;1646;52.450;13.326;2024-03-22T09:03:02;11.40;99.90
3268;DHT22;1646;52.450;13.326;2024-03-22T09:07:59;11.40;99.90
3268;DHT22;1646;52.450;13.326;2024-03-22T09:12:59;11.40;99.90
3268;DHT22;1646;52.450;13.326;2024-03-22T09:17:56;11.50;99.90
3268;DHT22;1646;52.450;13.326;2024-03-22T09:22:54;11.60;99.90
3268;DHT22;1646;52.450;13.326;2024-03-22T09:27:52;11.90;99.90
3268;DHT22;1646;52.450;13.326;2024-03-22T09:32:50;12.30;99.90
3268;DHT22;1646;52.450;13.326;2024-03-22T09:37:47;12.30;99.90
3268;DHT22;1646;52.450;13.326;2024-03-22T09:42:48;12.30;99.90
3268;DHT22;1646;52.450;13.326;2024-03-22T09:47:45;12.30;99.90
3268;DHT22;1646;52.450;13.326;2024-03-22T09:52:44;12.30;99.90
3268;DHT22;1646;52.450;13.326;2024-03-22T09:57:42;12.30;99.90
3268;DHT22;1646;52.450;13.326;2024-03-22T10:02:42;12.30;99.90
3268;DHT22;1646;52.450;13.326;2024-03-22T10:07:40;12.40;99.90
3268;DHT22;1646;52.450;13.326;2024-03-22T10:12:37;12.40;99.90
3268;DHT22;1646;52.450;13.326;2024-03-22T10:17:35;12.40;99.90
3268;DHT22;1646;52.450;13.326;2024-03-22T10:22:34;12.70;99.90
3268;DHT22;1646;52.450;13.326;2024-03-22T10:27:31;12.90;99.90
3268;DHT22;1646;52.450;13.326;2024-03-22T10:32:28;13.10;99.90
3268;DHT22;1646;52.450;13.326;2024-03-22T10:37:25;13.30;99.90
3268;DHT22;1646;52.450;13.326;2024-03-22T10:42:24;13.50;99.90
3268;DHT22;1646;52.450;13.326;2024-03-22T10:47:23;13.70;99.90
3268;DHT22;1646;52.450;13.326;2024-03-22T10:52:21;14.50;99.90
3268;DHT22;1646;52.450;13.326;2024-03-22T10:57:19;15.40;99.90
3268;DHT22;1646;52.450;13.326;2024-03-22T11:02:17;16.50;99.90
3268;DHT22;1646;52.450;13.326;2024-03-22T11:07:20;16.00;99.90
3268;DHT22;1646;52.450;13.326;2024-03-22T11:12:19;15.30;99.90
3268;DHT22;1646;52.450;13.326;2024-03-22T11:17:19;14.90;99.90
3268;DHT22;1646;52.450;13.326;2024-03-22T11:22:17;14.50;99.90
3268;DHT22;1646;52.450;13.326;2024-03-22T11:27:14;14.20;99.90
3268;DHT22;1646;52.450;13.326;2024-03-22T11:32:12;14.10;99.90
3268;DHT22;1646;52.450;13.326;2024-03-22T11:37:10;14.10;99.90
3268;DHT22;1646;52.450;13.326;2024-03-22T11:42:08;14.00;99.90
3268;DHT22;1646;52.450;13.326;2024-03-22T11:47:06;14.00;99.90
3268;DHT22;1646;52.450;13.326;2024-03-22T11:52:04;13.80;99.90
3268;DHT22;1646;52.450;13.326;2024-03-22T11:57:04;13.70;99.90
3268;DHT22;1646;52.450;13.326;2024-03-22T12:02:01;13.70;99.90
3268;DHT22;1646;52.450;13.326;2024-03-22T12:06:58;13.70;99.90
3268;DHT22;1646;52.450;13.326;2024-03-22T12:11:56;13.80;99.90
3268;DHT22;1646;52.450;13.326;2024-03-22T12:16:54;13.70;99.90
3268;DHT22;1646;52.450;13.326;2024-03-22T12:21:51;13.70;99.90
3268;DHT22;1646;52.450;13.326;2024-03-22T12:26:49;13.70;99.90
3268;DHT22;1646;52.450;13.326;2024-03-22T12:31:47;13.70;99.90
3268;DHT22;1646;52.450;13.326;2024-03-22T12:36:45;13.50;99.90
3268;DHT22;1646;52.450;13.326;2024-03-22T12:41:42;13.30;99.90
3268;DHT22;1646;52.450;13.326;2024-03-22T12:46:39;13.30;99.90
3268;DHT22;1646;52.450;13.326;2024-03-22T12:51:38;13.40;99.90
3268;DHT22;1646;52.450;13.326;2024-03-22T12:56:36;13.40;99.90
3268;DHT22;1646;52.450;13.326;2024-03-22T13:01:35;13.40;99.90
3268;DHT22;1646;52.450;13.326;2024-03-22T13:06:34;13.20;99.90
3268;DHT22;1646;52.450;13.326;2024-03-22T13:11:31;12.90;99.90
3268;DHT22;1646;52.450;13.326;2024-03-22T13:16:30;12.60;99.90
3268;DHT22;1646;52.450;13.326;2024-03-22T13:21:27;12.60;99.90
3268;DHT22;1646;52.450;13.326;2024-03-22T13:26:24;12.50;99.90
3268;DHT22;1646;52.450;13.326;2024-03-22T13:31:21;12.50;99.90
3268;DHT22;1646;52.450;13.326;2024-03-22T13:36:20;12.60;99.90
3268;DHT22;1646;52.450;13.326;2024-03-22T13:41:17;12.80;99.90
3268;DHT22;1646;52.450;13.326;2024-03-22T13:46:14;12.90;99.90
3268;DHT22;1646;52.450;13.326;2024-03-22T13:51:13;13.00;99.90
3268;DHT22;1646;52.450;13.326;2024-03-22T13:56:11;13.10;99.90
3268;DHT22;1646;52.450;13.326;2024-03-22T14:01:08;13.10;99.90
3268;DHT22;1646;52.450;13.326;2024-03-22T14:06:06;13.20;99.90
3268;DHT22;1646;52.450;13.326;2024-03-22T14:11:04;13.20;99.90
3268;DHT22;1646;52.450;13.326;2024-03-22T14:16:02;13.10;99.90
3268;DHT22;1646;52.450;13.326;2024-03-22T14:20:59;12.90;99.90
3268;DHT22;1646;52.450;13.326;2024-03-22T14:25:56;13.00;99.90
3268;DHT22;1646;52.450;13.326;2024-03-22T14:30:53;13.00;99.90
3268;DHT22;1646;52.450;13.326;2024-03-22T14:35:52;13.00;99.90
3268;DHT22;1646;52.450;13.326;2024-03-22T14:40:49;13.00;99.90
3268;DHT22;1646;52.450;13.326;2024-03-22T14:45:48;13.00;99.90
3268;DHT22;1646;52.450;13.326;2024-03-22T14:50:45;13.00;99.90
3268;DHT22;1646;52.450;13.326;2024-03-22T14:55:53;13.10;99.90
3268;DHT22;1646;52.450;13.326;2024-03-22T15:01:08;13.10;99.90
3268;DHT22;1646;52.450;13.326;2024-03-22T15:06:06;13.00;99.90
3268;DHT22;1646;52.450;13.326;2024-03-22T15:11:04;13.00;99.90
3268;DHT22;1646;52.450;13.326;2024-03-22T15:16:02;12.90;99.90
3268;DHT22;1646;52.450;13.326;2024-03-22T15:20:59;12.90;99.90
3268;DHT22;1646;52.450;13.326;2024-03-22T15:25:56;12.80;99.90
3268;DHT22;1646;52.450;13.326;2024-03-22T15:30:54;12.80;99.90
3268;DHT22;1646;52.450;13.326;2024-03-22T15:35:51;12.80;99.90
3268;DHT22;1646;52.450;13.326;2024-03-22T15:40:49;12.70;99.90
3268;DHT22;1646;52.450;13.326;2024-03-22T15:45:47;12.70;99.90
3268;DHT22;1646;52.450;13.326;2024-03-22T15:50:46;12.60;99.90
3268;DHT22;1646;52.450;13.326;2024-03-22T15:55:43;12.60;99.90
3268;DHT22;1646;52.450;13.326;2024-03-22T16:00:40;12.50;99.90
3268;DHT22;1646;52.450;13.326;2024-03-22T16:05:50;12.40;99.90
3268;DHT22;1646;52.450;13.326;2024-03-22T16:10:47;12.30;99.90
3268;DHT22;1646;52.450;13.326;2024-03-22T16:15:45;12.20;99.90
3268;DHT22;1646;52.450;13.326;2024-03-22T16:20:42;12.20;99.90
3268;DHT22;1646;52.450;13.326;2024-03-22T16:25:41;12.20;99.90
3268;DHT22;1646;52.450;13.326;2024-03-22T16:30:40;12.20;99.90
3268;DHT22;1646;52.450;13.326;2024-03-22T16:35:37;12.30;99.90
3268;DHT22;1646;52.450;13.326;2024-03-22T16:40:34;12.30;99.90
3268;DHT22;1646;52.450;13.326;2024-03-22T16:45:33;12.30;99.90
3268;DHT22;1646;52.450;13.326;2024-03-22T16:50:32;12.20;99.90
3268;DHT22;1646;52.450;13.326;2024-03-22T16:55:29;12.20;99.90
3268;DHT22;1646;52.450;13.326;2024-03-22T17:00:26;12.20;99.90
3268;DHT22;1646;52.450;13.326;2024-03-22T17:05:25;12.20;99.90
3268;DHT22;1646;52.450;13.326;2024-03-22T17:10:22;12.20;99.90
3268;DHT22;1646;52.450;13.326;2024-03-22T17:15:19;12.10;99.90
3268;DHT22;1646;52.450;13.326;2024-03-22T17:20:17;12.10;99.90
3268;DHT22;1646;52.450;13.326;2024-03-22T17:25:16;12.10;99.90
3268;DHT22;1646;52.450;13.326;2024-03-22T17:30:13;12.00;99.90
3268;DHT22;1646;52.450;13.326;2024-03-22T17:35:10;12.00;99.90
3268;DHT22;1646;52.450;13.326;2024-03-22T17:40:08;11.90;99.90
3268;DHT22;1646;52.450;13.326;2024-03-22T17:45:09;12.00;99.90
3268;DHT22;1646;52.450;13.326;2024-03-22T17:50:07;12.00;99.90
3268;DHT22;1646;52.450;13.326;2024-03-22T17:55:05;11.90;99.90
3268;DHT22;1646;52.450;13.326;2024-03-22T18:00:02;11.90;99.90
3268;DHT22;1646;52.450;13.326;2024-03-22T18:05:04;11.90;99.90
3268;DHT22;1646;52.450;13.326;2024-03-22T18:10:02;11.90;99.90
3268;DHT22;1646;52.450;13.326;2024-03-22T18:14:59;12.00;99.90
3268;DHT22;1646;52.450;13.326;2024-03-22T18:19:56;12.00;99.90
3268;DHT22;1646;52.450;13.326;2024-03-22T18:24:54;12.00;99.90
3268;DHT22;1646;52.450;13.326;2024-03-22T18:29:51;12.00;99.90
3268;DHT22;1646;52.450;13.326;2024-03-22T18:34:49;12.10;99.90
3268;DHT22;1646;52.450;13.326;2024-03-22T18:39:46;12.10;99.90
3268;DHT22;1646;52.450;13.326;2024-03-22T18:44:45;12.00;99.90
3268;DHT22;1646;52.450;13.326;2024-03-22T18:49:42;12.00;99.90
3268;DHT22;1646;52.450;13.326;2024-03-22T18:54:44;12.00;99.90
3268;DHT22;1646;52.450;13.326;2024-03-22T18:59:46;12.00;99.90
3268;DHT22;1646;52.450;13.326;2024-03-22T19:04:43;12.00;99.90
3268;DHT22;1646;52.450;13.326;2024-03-22T19:09:40;12.10;99.90
3268;DHT22;1646;52.450;13.326;2024-03-22T19:14:37;11.90;99.90
3268;DHT22;1646;52.450;13.326;2024-03-22T19:19:36;12.00;99.90
3268;DHT22;1646;52.450;13.326;2024-03-22T19:24:33;12.00;99.90
3268;DHT22;1646;52.450;13.326;2024-03-22T19:29:30;12.00;99.90
3268;DHT22;1646;52.450;13.326;2024-03-22T19:34:27;11.90;99.90
3268;DHT22;1646;52.450;13.326;2024-03-22T19:39:26;11.90;99.90
3268;DHT22;1646;52.450;13.326;2024-03-22T19:44:23;12.00;99.90
3268;DHT22;1646;52.450;13.326;2024-03-22T19:49:20;12.10;99.90
3268;DHT22;1646;52.450;13.326;2024-03-22T19:54:18;12.10;99.90
3268;DHT22;1646;52.450;13.326;2024-03-22T19:59:18;12.10;99.90
3268;DHT22;1646;52.450;13.326;2024-03-22T20:04:16;12.00;99.90
3268;DHT22;1646;52.450;13.326;2024-03-22T20:09:13;11.90;99.90
3268;DHT22;1646;52.450;13.326;2024-03-22T20:14:11;11.80;99.90
3268;DHT22;1646;52.450;13.326;2024-03-22T20:19:09;11.90;99.90
3268;DHT22;1646;52.450;13.326;2024-03-22T20:24:07;11.80;99.90
3268;DHT22;1646;52.450;13.326;2024-03-22T20:29:04;11.80;99.90
3268;DHT22;1646;52.450;13.326;2024-03-22T20:34:01;11.80;99.90
